Time;durP1;ratioP1;P1;durP2;ratioP2;P2;SDS_P1;SDS_P2;PMS_P1;PMS_P2;Temp;Humidity;BMP_temperature;BMP_pressure;BME280_temperature;BME280_humidity;BME280_pressure;Samples;Min_cycle;Max_cycle;Signal;HPM_P1;HPM_P2
2023/06/02 00:02:16;;;;;;;15.63;2.83;;;;;;;-143.48;64.49;118439.88;5015174;28;20021;-74
2023/06/02 00:04:42;;;;;;;15.80;2.92;;;;;;;-143.48;64.47;118439.88;5033244;28;20079;-74
2023/06/02 00:07:08;;;;;;;18.38;3.35;;;;;;;-143.48;63.59;118439.88;5015220;28;20030;-75
2023/06/02 00:09:38;;;;;;;15.63;2.95;;;;;;;-143.48;63.77;118439.88;5036785;28;20025;-74
2023/06/02 00:12:04;;;;;;;16.83;3.10;;;;;;;-143.48;62.81;118439.88;5019232;28;20092;-74
2023/06/02 00:14:30;;;;;;;16.52;2.80;;;;;;;-143.48;63.32;118439.88;5036681;28;20520;-74
2023/06/02 00:17:00;;;;;;;14.25;2.67;;;;;;;-143.48;62.76;118439.88;5018863;28;20393;-74
2023/06/02 00:43:02;;;;;;;19.15;3.15;;;;;;;-143.48;64.55;118439.88;5036404;28;20125;-74
2023/06/02 00:45:27;;;;;;;18.55;2.83;;;;;;;-143.48;64.29;118439.88;5035956;28;20053;-74
2023/06/02 00:47:53;;;;;;;20.30;3.05;;;;;;;-143.48;64.38;118439.88;5017940;28;20481;-74
2023/06/02 00:50:18;;;;;;;16.00;3.00;;;;;;;-143.48;64.65;118439.88;5035562;28;20389;-74
2023/06/02 00:52:46;;;;;;;14.02;2.92;;;;;;;-143.48;64.56;118439.88;5035705;28;20025;-74
2023/06/02 00:55:11;;;;;;;13.10;3.00;;;;;;;-143.48;64.40;118439.88;5018436;28;20072;-74
2023/06/02 00:57:38;;;;;;;11.43;2.55;;;;;;;-143.48;65.11;118439.88;5017717;28;20044;-74
2023/06/02 01:00:05;;;;;;;9.93;2.67;;;;;;;-143.48;64.29;118439.88;5035606;28;20037;-74
2023/06/02 01:02:31;;;;;;;12.85;2.80;;;;;;;-143.48;63.95;118439.88;5018175;28;20044;-74
2023/06/02 01:04:57;;;;;;;14.15;2.67;;;;;;;-143.48;64.61;118439.88;5018435;28;20014;-74
2023/06/02 01:07:24;;;;;;;9.93;3.03;;;;;;;-143.48;65.41;118439.88;5017788;28;20429;-73
2023/06/02 01:09:55;;;;;;;11.45;2.35;;;;;;;-143.48;64.72;118439.88;5017503;28;20370;-74
2023/06/02 01:12:21;;;;;;;13.65;2.58;;;;;;;-143.48;64.57;118439.88;5035735;28;20025;-74
2023/06/02 01:14:47;;;;;;;7.85;2.28;;;;;;;-143.48;64.96;118439.88;5035034;28;20021;-75
2023/06/02 01:17:13;;;;;;;12.27;2.70;;;;;;;-143.48;64.12;118439.88;5035004;28;20116;-74
2023/06/02 01:19:40;;;;;;;9.63;2.28;;;;;;;-143.48;64.22;118439.88;5035163;28;20072;-74
2023/06/02 01:22:09;;;;;;;13.75;2.53;;;;;;;-143.48;63.94;118439.88;5017377;28;20508;-74
2023/06/02 01:24:38;;;;;;;9.45;2.20;;;;;;;-143.48;64.47;118439.88;5017047;28;20026;-74
2023/06/02 01:27:07;;;;;;;9.13;1.92;;;;;;;-143.48;63.98;118439.88;5016935;28;20035;-74
2023/06/02 01:29:35;;;;;;;11.52;2.20;;;;;;;-143.48;64.68;118439.88;5034982;28;20186;-74
2023/06/02 01:32:06;;;;;;;11.20;2.15;;;;;;;-143.48;64.29;118439.88;5034676;28;20104;-75
2023/06/02 01:34:45;;;;;;;8.10;2.00;;;;;;;-143.48;64.28;118439.88;5017083;28;20037;-74
2023/06/02 01:37:13;;;;;;;12.20;2.10;;;;;;;-143.48;63.54;118439.88;5035304;28;20075;-74
2023/06/02 01:39:40;;;;;;;9.93;2.40;;;;;;;-143.48;64.73;118439.88;5017478;28;20083;-74
2023/06/02 01:42:06;;;;;;;11.23;2.40;;;;;;;-143.48;63.36;118439.88;5016809;28;20025;-74
2023/06/02 01:44:33;;;;;;;12.43;2.17;;;;;;;-143.48;64.67;118439.88;5017481;28;20112;-74
2023/06/02 01:46:59;;;;;;;6.88;2.08;;;;;;;-143.48;64.06;118439.88;5034320;28;20029;-74
2023/06/02 01:49:24;;;;;;;9.35;2.40;;;;;;;-143.48;64.08;118439.88;5016710;28;20474;-75
2023/06/02 01:51:50;;;;;;;17.67;2.75;;;;;;;-143.48;63.37;118439.88;5016594;28;20025;-74
2023/06/02 01:54:15;;;;;;;12.98;2.45;;;;;;;-143.48;63.81;118439.88;5016652;28;20033;-74
2023/06/02 01:56:41;;;;;;;12.38;2.55;;;;;;;-143.48;63.08;118439.88;5034179;28;20469;-74
2023/06/02 01:59:07;;;;;;;13.05;2.92;;;;;;;-143.48;62.98;118439.88;5034771;28;20030;-74
2023/06/02 02:01:33;;;;;;;16.70;2.72;;;;;;;-143.48;64.03;118439.88;5016490;28;20048;-74
2023/06/02 02:03:59;;;;;;;12.07;2.53;;;;;;;-143.48;64.33;118439.88;5016457;28;20021;-74
2023/06/02 02:06:29;;;;;;;8.43;2.45;;;;;;;-143.48;63.93;118439.88;5016433;28;20362;-74
2023/06/02 02:08:56;;;;;;;13.75;2.30;;;;;;;-143.48;64.38;118439.88;5016594;28;20180;-74
2023/06/02 02:11:21;;;;;;;18.92;2.75;;;;;;;-143.48;64.30;118439.88;5016996;28;20140;-74
2023/06/02 02:13:48;;;;;;;15.15;2.42;;;;;;;-143.48;64.74;118439.88;5017032;28;20065;-74
2023/06/02 02:16:13;;;;;;;11.73;2.40;;;;;;;-143.48;63.81;118439.88;5033939;28;20026;-74
2023/06/02 02:18:40;;;;;;;13.35;2.88;;;;;;;-143.48;64.30;118439.88;5016418;28;20083;-74
2023/06/02 02:21:05;;;;;;;12.63;2.30;;;;;;;-143.48;63.38;118439.88;5016190;28;20372;-74
2023/06/02 02:23:31;;;;;;;16.02;2.30;;;;;;;-143.48;64.39;118439.88;5033755;28;20031;-74
2023/06/02 02:25:56;;;;;;;10.45;2.60;;;;;;;-143.48;63.72;118439.88;5016443;28;20029;-74
2023/06/02 02:28:21;;;;;;;11.63;2.28;;;;;;;-143.48;63.10;118439.88;5033954;28;20338;-75
2023/06/02 02:30:46;;;;;;;13.25;2.20;;;;;;;-143.48;62.82;118439.88;5015457;28;20025;-74
2023/06/02 02:33:12;;;;;;;12.40;2.60;;;;;;;-143.48;63.12;118439.88;5034170;28;20049;-74
2023/06/02 02:35:37;;;;;;;13.25;2.47;;;;;;;-143.48;63.90;118439.88;5016074;28;20029;-74
2023/06/02 02:38:03;;;;;;;14.43;2.38;;;;;;;-143.48;63.90;118439.88;5033965;28;20029;-74
2023/06/02 02:40:28;;;;;;;14.77;2.92;;;;;;;-143.48;64.47;118439.88;5016065;28;20025;-75
2023/06/02 02:42:53;;;;;;;14.93;2.95;;;;;;;-143.48;63.18;118439.88;5016663;28;20032;-74
2023/06/02 02:45:19;;;;;;;15.40;2.38;;;;;;;-143.48;63.48;118439.88;5033709;28;20029;-74
2023/06/02 02:47:45;;;;;;;11.13;2.75;;;;;;;-143.48;62.89;118439.88;5033345;28;20052;-74
2023/06/02 02:50:10;;;;;;;15.60;2.55;;;;;;;-143.48;62.86;118439.88;5034010;28;20030;-74
2023/06/02 02:52:35;;;;;;;10.93;2.17;;;;;;;-143.48;63.30;118439.88;5015867;28;20469;-74
2023/06/02 02:55:01;;;;;;;11.05;2.40;;;;;;;-143.48;62.57;118439.88;5033350;28;20021;-74
2023/06/02 02:57:26;;;;;;;13.38;2.70;;;;;;;-143.48;61.86;118439.88;5033279;28;20032;-74
2023/06/02 02:59:52;;;;;;;11.43;2.60;;;;;;;-143.48;62.68;118439.88;5015776;28;20026;-75
2023/06/02 03:02:17;;;;;;;14.55;2.38;;;;;;;-143.48;62.20;118439.88;5015532;28;20511;-74
2023/06/02 03:04:43;;;;;;;14.10;2.30;;;;;;;-143.48;63.52;118439.88;5015864;28;20021;-75
2023/06/02 03:07:08;;;;;;;11.63;2.40;;;;;;;-143.48;63.36;118439.88;5015346;28;20098;-75
2023/06/02 03:09:34;;;;;;;14.80;2.38;;;;;;;-143.48;62.38;118439.88;5015884;28;20099;-74
2023/06/02 03:11:59;;;;;;;10.77;2.50;;;;;;;-143.48;62.82;118439.88;5015504;28;20025;-75
2023/06/02 03:14:27;;;;;;;11.77;2.38;;;;;;;-143.48;63.05;118439.88;5015772;28;20025;-74
2023/06/02 03:16:53;;;;;;;9.85;2.42;;;;;;;-143.48;62.97;118439.88;5016072;28;20544;-75
2023/06/02 03:19:18;;;;;;;13.60;2.55;;;;;;;-143.48;62.33;118439.88;5015642;28;20116;-74
2023/06/02 03:21:44;;;;;;;12.73;2.30;;;;;;;-143.48;62.12;118439.88;5015428;28;20362;-75
2023/06/02 03:24:11;;;;;;;18.52;2.75;;;;;;;-143.48;62.91;118439.88;5016168;28;20029;-74
2023/06/02 03:26:40;;;;;;;13.45;2.85;;;;;;;-143.48;63.05;118439.88;5033212;28;20028;-75
2023/06/02 03:29:06;;;;;;;13.40;2.60;;;;;;;-143.48;62.40;118439.88;5015268;28;20116;-74
2023/06/02 03:31:31;;;;;;;10.30;2.53;;;;;;;-143.48;62.88;118439.88;5033227;28;20043;-75
2023/06/02 03:33:56;;;;;;;14.10;2.25;;;;;;;-143.48;63.21;118439.88;5015444;28;20025;-75
2023/06/02 03:36:22;;;;;;;11.57;2.53;;;;;;;-143.48;62.71;118439.88;5015711;28;20022;-74
2023/06/02 03:38:47;;;;;;;9.80;2.17;;;;;;;-143.48;62.94;118439.88;5015259;28;20380;-75
2023/06/02 03:41:12;;;;;;;16.52;2.75;;;;;;;-143.48;63.50;118439.88;5032926;28;20384;-75
2023/06/02 03:43:38;;;;;;;17.73;2.90;;;;;;;-143.48;63.05;118439.88;5037089;28;20037;-74
2023/06/02 03:46:03;;;;;;;12.50;2.65;;;;;;;-143.48;63.66;118439.88;5018952;28;20064;-74
2023/06/02 03:48:28;;;;;;;10.05;2.60;;;;;;;-143.48;64.01;118439.88;5019098;28;20057;-74
2023/06/02 03:50:54;;;;;;;17.33;2.70;;;;;;;-143.48;64.16;118439.88;5018809;28;20076;-74
2023/06/02 03:53:19;;;;;;;14.60;2.40;;;;;;;-143.48;64.67;118439.88;5019365;28;20025;-74
2023/06/02 03:55:45;;;;;;;12.27;2.40;;;;;;;-143.48;64.95;118439.88;5018996;28;20063;-74
2023/06/02 03:58:12;;;;;;;14.57;2.35;;;;;;;-143.48;64.94;118439.88;5019146;28;20428;-74
2023/06/02 04:00:37;;;;;;;15.05;2.60;;;;;;;-143.48;64.63;118439.88;5018922;28;20050;-75
2023/06/02 04:03:03;;;;;;;14.07;2.72;;;;;;;-143.48;64.45;118439.88;5037069;28;20013;-75
2023/06/02 04:05:28;;;;;;;10.55;2.80;;;;;;;-143.48;63.69;118439.88;5036595;28;20029;-74
2023/06/02 04:07:56;;;;;;;18.10;2.95;;;;;;;-143.48;64.25;118439.88;5018775;28;20024;-75
2023/06/02 04:10:21;;;;;;;10.32;2.47;;;;;;;-143.48;63.99;118439.88;5018833;28;20112;-74
2023/06/02 04:12:47;;;;;;;12.77;2.20;;;;;;;-143.48;63.67;118439.88;5018534;28;20112;-75
2023/06/02 04:15:12;;;;;;;17.55;2.50;;;;;;;-143.48;63.56;118439.88;5018461;28;20022;-75
2023/06/02 04:17:37;;;;;;;13.23;2.35;;;;;;;-143.48;64.49;118439.88;5018477;28;20554;-75
2023/06/02 04:20:03;;;;;;;10.77;2.42;;;;;;;-143.48;63.59;118439.88;5018816;28;20030;-74
2023/06/02 04:22:28;;;;;;;14.20;2.67;;;;;;;-143.48;63.56;118439.88;5018824;28;20025;-74
2023/06/02 04:24:54;;;;;;;12.80;2.30;;;;;;;-143.48;62.71;118439.88;5018378;28;20021;-74
2023/06/02 04:27:19;;;;;;;13.85;2.80;;;;;;;-143.48;63.30;118439.88;5018778;28;20021;-74
2023/06/02 04:29:45;;;;;;;10.35;2.90;;;;;;;-143.48;62.84;118439.88;5036162;28;20541;-75
2023/06/02 04:32:10;;;;;;;12.98;2.30;;;;;;;-143.48;62.47;118439.88;5020871;28;20087;-74
2023/06/02 04:34:36;;;;;;;14.65;2.88;;;;;;;-143.48;62.57;118439.88;5022381;28;20024;-75
2023/06/02 04:37:02;;;;;;;13.48;2.55;;;;;;;-143.48;62.86;118439.88;5018847;28;20021;-74
2023/06/02 04:39:28;;;;;;;11.63;2.72;;;;;;;-143.48;63.37;118439.88;5018239;28;20025;-75
2023/06/02 04:41:56;;;;;;;9.23;2.40;;;;;;;-143.48;62.94;118439.88;5035855;28;20096;-75
2023/06/02 04:44:22;;;;;;;8.48;2.28;;;;;;;-143.48;63.18;118439.88;5036484;28;20030;-74
2023/06/02 04:46:48;;;;;;;13.60;2.20;;;;;;;-143.48;63.38;118439.88;5018180;28;20408;-75
2023/06/02 04:49:13;;;;;;;15.27;3.15;;;;;;;-143.48;62.52;118439.88;5018176;28;20029;-75
2023/06/02 04:51:39;;;;;;;19.73;2.78;;;;;;;-143.48;62.85;118439.88;5017659;28;20044;-74
2023/06/02 04:54:04;;;;;;;20.20;3.10;;;;;;;-143.48;63.40;118439.88;5017846;28;20021;-75
2023/06/02 04:56:30;;;;;;;15.38;2.70;;;;;;;-143.48;63.46;118439.88;5017806;28;20104;-75
2023/06/02 04:58:56;;;;;;;11.23;2.17;;;;;;;-143.48;63.39;118439.88;5017400;28;20122;-74
2023/06/02 05:01:21;;;;;;;14.35;2.42;;;;;;;-143.48;62.31;118439.88;5035198;28;20045;-75
2023/06/02 05:03:47;;;;;;;15.27;2.60;;;;;;;-143.48;63.28;118439.88;5017371;28;20078;-74
2023/06/02 05:06:13;;;;;;;16.83;2.55;;;;;;;-143.48;63.11;118439.88;5021792;28;20026;-74
2023/06/02 05:08:39;;;;;;;13.27;2.70;;;;;;;-143.48;62.91;118439.88;5037408;28;20033;-75
2023/06/02 05:11:05;;;;;;;13.55;2.38;;;;;;;-143.48;62.96;118439.88;5017232;28;20029;-74
2023/06/02 05:13:31;;;;;;;9.70;2.38;;;;;;;-143.48;63.15;118439.88;5035281;28;20021;-74
2023/06/02 05:15:56;;;;;;;16.15;2.42;;;;;;;-143.48;62.51;118439.88;5017568;28;20171;-75
2023/06/02 05:18:22;;;;;;;15.70;2.65;;;;;;;-143.48;61.95;118439.88;5035197;28;20021;-75
2023/06/02 05:20:47;;;;;;;13.40;2.65;;;;;;;-143.48;61.67;118439.88;5034792;28;20104;-74
2023/06/02 05:23:13;;;;;;;10.18;2.40;;;;;;;-143.48;60.93;118439.88;5017404;28;20382;-75
2023/06/02 05:25:39;;;;;;;12.20;2.53;;;;;;;-143.48;61.42;118439.88;5035280;28;20025;-74
2023/06/02 05:28:04;;;;;;;16.90;2.90;;;;;;;-143.48;61.16;118439.88;5017103;28;20026;-75
2023/06/02 05:30:30;;;;;;;11.88;2.60;;;;;;;-143.48;60.08;118439.88;5016833;28;20029;-74
2023/06/02 05:32:55;;;;;;;12.85;2.75;;;;;;;-143.48;60.51;118439.88;5016937;28;20021;-75
2023/06/02 05:35:20;;;;;;;16.08;2.97;;;;;;;-143.48;60.17;118439.88;5016813;28;20067;-74
2023/06/02 05:37:46;;;;;;;15.07;2.55;;;;;;;-143.48;59.28;118439.88;5035332;28;20026;-74
2023/06/02 05:40:12;;;;;;;13.63;2.58;;;;;;;-143.48;59.36;118439.88;5018441;28;20079;-75
2023/06/02 05:42:37;;;;;;;9.63;2.40;;;;;;;-143.48;58.69;118439.88;5017066;28;20021;-75
2023/06/02 05:45:05;;;;;;;13.50;2.65;;;;;;;-143.48;59.12;118439.88;5020491;28;20025;-74
2023/06/02 05:47:33;;;;;;;14.80;2.88;;;;;;;-143.48;59.09;118439.88;5022602;28;20026;-75
2023/06/02 05:49:59;;;;;;;13.63;2.70;;;;;;;-143.48;59.43;118439.88;5034399;28;20071;-75
2023/06/02 05:52:24;;;;;;;12.20;2.80;;;;;;;-143.48;59.12;118439.88;5034077;28;20037;-75
2023/06/02 05:54:50;;;;;;;13.63;2.30;;;;;;;-143.48;59.47;118439.88;5016393;28;20100;-74
2023/06/02 05:57:17;;;;;;;7.88;2.50;;;;;;;-143.48;59.22;118439.88;5016255;28;20427;-75
2023/06/02 05:59:43;;;;;;;21.77;2.60;;;;;;;-143.48;58.39;118439.88;5016178;28;20097;-75
2023/06/02 06:02:08;;;;;;;20.15;2.90;;;;;;;-143.48;58.48;118439.88;5016174;28;20065;-75
2023/06/02 06:04:33;;;;;;;16.45;2.35;;;;;;;-143.48;59.52;118439.88;5033610;28;20033;-75
2023/06/02 06:06:59;;;;;;;14.68;2.38;;;;;;;-143.48;58.12;118439.88;5033300;28;20029;-75
2023/06/02 06:09:24;;;;;;;20.90;2.70;;;;;;;-143.48;58.64;118439.88;5016041;28;20082;-75
2023/06/02 06:11:50;;;;;;;13.23;2.58;;;;;;;-143.48;60.65;118439.88;5033881;28;20021;-75
2023/06/02 06:14:15;;;;;;;13.88;2.67;;;;;;;-143.48;58.75;118439.88;5033792;28;20090;-75
2023/06/02 06:16:41;;;;;;;18.25;2.60;;;;;;;-143.48;59.92;118439.88;5015953;28;20021;-75
2023/06/02 06:19:06;;;;;;;11.55;2.63;;;;;;;-143.48;60.00;118439.88;5015774;28;20025;-75
2023/06/02 06:21:32;;;;;;;16.40;2.55;;;;;;;-143.48;59.44;118439.88;5033059;28;20029;-75
2023/06/02 06:23:57;;;;;;;15.93;2.60;;;;;;;-143.48;58.79;118439.88;5032960;28;20495;-75
2023/06/02 06:26:23;;;;;;;10.18;2.17;;;;;;;-143.48;58.88;118439.88;5013181;28;20052;-75
2023/06/02 06:28:48;;;;;;;16.80;2.50;;;;;;;-143.48;58.50;118439.88;5031826;28;20028;-75
2023/06/02 06:31:13;;;;;;;10.38;2.15;;;;;;;-143.48;58.52;118439.88;5014073;28;20029;-75
2023/06/02 06:33:39;;;;;;;17.45;2.83;;;;;;;-143.48;59.37;118439.88;5031809;28;20104;-76
2023/06/02 06:36:04;;;;;;;12.95;2.45;;;;;;;-143.48;59.36;118439.88;5013989;28;20021;-76
2023/06/02 06:38:29;;;;;;;17.27;2.67;;;;;;;-143.48;59.79;118439.88;5031947;28;20040;-75
2023/06/02 06:40:55;;;;;;;17.25;3.17;;;;;;;-143.48;59.01;118439.88;5015607;28;20507;-75
2023/06/02 06:43:20;;;;;;;23.80;2.75;;;;;;;-143.48;59.13;118439.88;5015498;28;20109;-74
2023/06/02 06:45:46;;;;;;;14.63;2.60;;;;;;;-143.48;59.57;118439.88;5015271;28;20034;-75
2023/06/02 06:48:11;;;;;;;12.90;2.92;;;;;;;-143.48;58.45;118439.88;5015386;28;20033;-75
2023/06/02 06:50:37;;;;;;;16.17;2.42;;;;;;;-143.48;57.64;118439.88;5033652;28;20424;-75
2023/06/02 06:53:05;;;;;;;11.82;2.55;;;;;;;-143.48;57.50;118439.88;5015694;28;20025;-74
2023/06/02 06:55:30;;;;;;;15.52;3.00;;;;;;;-143.48;57.91;118439.88;5015706;28;20099;-75
2023/06/02 06:57:56;;;;;;;15.05;2.53;;;;;;;-143.48;58.28;118439.88;5015508;28;20017;-73
2023/06/02 07:00:21;;;;;;;17.92;2.50;;;;;;;-143.48;58.15;118439.88;5032771;28;20056;-75
2023/06/02 07:02:48;;;;;;;13.93;2.70;;;;;;;-143.48;58.02;118439.88;5033054;28;20124;-74
2023/06/02 07:05:17;;;;;;;16.63;2.90;;;;;;;-143.48;58.10;118439.88;5015478;28;20028;-75
2023/06/02 07:07:43;;;;;;;13.00;2.78;;;;;;;-143.48;58.72;118439.88;5033031;28;20108;-75
2023/06/02 07:10:10;;;;;;;13.55;2.60;;;;;;;-143.48;58.47;118439.88;5033163;28;20032;-75
2023/06/02 07:12:36;;;;;;;20.58;2.80;;;;;;;-143.48;59.41;118439.88;5032867;28;20037;-75
2023/06/02 07:15:01;;;;;;;15.35;2.47;;;;;;;-143.48;58.98;118439.88;5015247;28;20017;-75
2023/06/02 07:17:28;;;;;;;12.57;3.10;;;;;;;-143.48;59.41;118439.88;5035147;28;20029;-74
2023/06/02 07:19:53;;;;;;;13.93;2.90;;;;;;;-143.48;60.07;118439.88;5037250;28;20389;-72
2023/06/02 07:22:18;;;;;;;18.02;2.72;;;;;;;-143.48;59.77;118439.88;5036989;28;20027;-75
2023/06/02 07:24:43;;;;;;;19.63;3.20;;;;;;;-143.48;60.38;118439.88;5018968;28;20064;-74
2023/06/02 07:27:10;;;;;;;20.65;3.13;;;;;;;-143.48;59.67;118439.88;5036808;28;20028;-74
2023/06/02 07:29:35;;;;;;;14.23;2.60;;;;;;;-143.48;59.66;118439.88;5036855;28;20497;-72
2023/06/02 07:32:00;;;;;;;15.02;2.35;;;;;;;-143.48;59.24;118439.88;5019124;28;20021;-73
2023/06/02 07:34:25;;;;;;;17.67;2.70;;;;;;;-143.48;60.75;118439.88;5018969;28;20068;-73
2023/06/02 07:36:51;;;;;;;11.80;2.65;;;;;;;-143.48;60.83;118439.88;5036723;28;20100;-73
2023/06/02 07:39:17;;;;;;;15.10;2.72;;;;;;;-143.48;60.06;118439.88;5018875;28;20033;-73
2023/06/02 07:41:43;;;;;;;14.15;2.85;;;;;;;-143.48;59.18;118439.88;5018892;28;20021;-73
2023/06/02 07:44:08;;;;;;;15.45;2.70;;;;;;;-143.48;59.31;118439.88;5036201;28;20049;-73
2023/06/02 07:46:34;;;;;;;14.98;2.58;;;;;;;-143.48;58.44;118439.88;5018359;28;20127;-73
2023/06/02 07:49:01;;;;;;;15.25;2.70;;;;;;;-143.48;59.58;118439.88;5036039;28;20029;-72
2023/06/02 07:51:26;;;;;;;22.13;2.63;;;;;;;-143.48;60.23;118439.88;5035975;28;20103;-73
2023/06/02 07:53:51;;;;;;;14.85;3.28;;;;;;;-143.48;59.86;118439.88;5036033;28;20072;-73
2023/06/02 07:56:17;;;;;;;18.02;2.75;;;;;;;-143.48;60.13;118439.88;5035833;28;20045;-73
2023/06/02 07:58:45;;;;;;;14.57;3.05;;;;;;;-143.48;61.44;118439.88;5018545;28;20013;-73
2023/06/02 08:01:10;;;;;;;14.77;2.47;;;;;;;-143.48;61.46;118439.88;5036207;28;20128;-72
2023/06/02 08:03:35;;;;;;;14.60;2.30;;;;;;;-143.48;60.72;118439.88;5036238;28;20079;-73
2023/06/02 08:06:01;;;;;;;12.63;2.90;;;;;;;-143.48;62.10;118439.88;5036346;28;20032;-72
2023/06/02 08:08:26;;;;;;;13.82;2.85;;;;;;;-143.48;63.10;118439.88;5018330;28;20393;-73
2023/06/02 08:10:51;;;;;;;16.58;2.90;;;;;;;-143.48;62.10;118439.88;5018366;28;20021;-73
2023/06/02 08:13:17;;;;;;;13.35;2.70;;;;;;;-143.48;61.29;118439.88;5018399;28;20021;-73
2023/06/02 08:15:42;;;;;;;16.98;3.50;;;;;;;-143.48;62.92;118439.88;5018205;28;20022;-73
2023/06/02 08:18:14;;;;;;;23.02;2.95;;;;;;;-143.48;62.15;118439.88;5018047;28;20037;-73
2023/06/02 08:20:41;;;;;;;11.52;2.80;;;;;;;-143.48;61.58;118439.88;5035941;28;20435;-73
2023/06/02 08:23:08;;;;;;;16.42;3.08;;;;;;;-143.48;63.28;118439.88;5035674;28;20022;-73
2023/06/02 08:25:37;;;;;;;14.52;3.08;;;;;;;-143.48;63.21;118439.88;5017883;28;20048;-73
2023/06/02 08:28:05;;;;;;;16.95;2.67;;;;;;;-143.48;62.67;118439.88;5017061;28;20033;-73
2023/06/02 08:30:31;;;;;;;19.92;2.92;;;;;;;-143.48;61.91;118439.88;5017860;28;20021;-73
2023/06/02 08:32:56;;;;;;;15.98;2.78;;;;;;;-143.48;62.30;118439.88;5017860;28;20604;-73
2023/06/02 08:35:22;;;;;;;14.25;2.47;;;;;;;-143.48;61.74;118439.88;5017874;28;20583;-72
2023/06/02 08:37:48;;;;;;;19.40;3.15;;;;;;;-143.48;61.91;118439.88;5035476;28;20049;-73
2023/06/02 08:40:16;;;;;;;19.77;3.10;;;;;;;-143.48;62.21;118439.88;5017488;28;20120;-73
2023/06/02 08:42:42;;;;;;;13.73;2.70;;;;;;;-143.48;61.95;118439.88;5035405;28;20037;-72
2023/06/02 08:45:08;;;;;;;12.02;3.05;;;;;;;-143.48;62.33;118439.88;5035314;28;20021;-72
2023/06/02 08:47:33;;;;;;;19.70;2.90;;;;;;;-143.48;62.56;118439.88;5035121;28;20029;-72
2023/06/02 08:50:02;;;;;;;14.15;2.90;;;;;;;-143.48;61.87;118439.88;5035290;28;20033;-72
2023/06/02 08:52:28;;;;;;;20.73;2.92;;;;;;;-143.48;62.17;118439.88;5017393;28;20033;-72
2023/06/02 08:54:55;;;;;;;26.55;3.35;;;;;;;-143.48;62.68;118439.88;5035153;28;20029;-73
2023/06/02 08:57:21;;;;;;;14.20;3.20;;;;;;;-143.48;61.29;118439.88;5035081;28;20037;-72
2023/06/02 08:59:47;;;;;;;15.98;2.90;;;;;;;-143.48;60.73;118439.88;5017047;28;20025;-74
2023/06/02 09:02:13;;;;;;;15.13;2.70;;;;;;;-143.48;59.82;118439.88;5017804;28;20442;-72
2023/06/02 09:04:39;;;;;;;18.98;3.22;;;;;;;-143.48;59.76;118439.88;5017660;28;20032;-73
2023/06/02 09:07:13;;;;;;;14.73;3.20;;;;;;;-143.48;59.10;118439.88;5017384;28;20025;-72
2023/06/02 09:09:43;;;;;;;12.23;2.72;;;;;;;-143.48;59.09;118439.88;5035429;28;20035;-74
2023/06/02 09:12:09;;;;;;;14.40;2.80;;;;;;;-143.48;58.78;118439.88;5017819;28;20021;-72
2023/06/02 09:14:35;;;;;;;13.80;2.70;;;;;;;-143.48;58.31;118439.88;5017109;28;20079;-72
2023/06/02 09:17:01;;;;;;;13.10;2.97;;;;;;;-143.48;57.63;118439.88;5017269;28;20023;-72
2023/06/02 09:19:26;;;;;;;12.95;2.88;;;;;;;-143.48;58.50;118439.88;5035538;28;20029;-71
2023/06/02 09:21:51;;;;;;;17.30;2.70;;;;;;;-143.48;58.95;118439.88;5035085;28;20033;-71
2023/06/02 09:24:33;;;;;;;14.63;3.00;;;;;;;-143.48;58.23;118439.88;5035383;28;20436;-71
2023/06/02 09:26:59;;;;;;;16.52;3.70;;;;;;;-143.48;57.82;118439.88;5035309;28;20033;-71
2023/06/02 09:29:24;;;;;;;15.57;3.10;;;;;;;-143.48;58.73;118439.88;5034994;28;20446;-71
2023/06/02 09:31:52;;;;;;;17.83;3.50;;;;;;;-143.48;59.21;118439.88;5034839;28;20402;-71
2023/06/02 09:34:19;;;;;;;19.42;2.97;;;;;;;-143.48;57.45;118439.88;5017057;28;20025;-71
2023/06/02 09:36:47;;;;;;;18.17;3.20;;;;;;;-143.48;58.19;118439.88;5034646;28;20404;-73
2023/06/02 09:39:12;;;;;;;18.75;2.85;;;;;;;-143.48;58.58;118439.88;5016871;28;20044;-73
2023/06/02 09:41:39;;;;;;;12.40;2.58;;;;;;;-143.48;57.43;118439.88;5034408;28;20026;-73
2023/06/02 09:44:14;;;;;;;15.75;2.92;;;;;;;-143.48;57.93;118439.88;5034594;28;20029;-73
2023/06/02 09:46:42;;;;;;;17.63;2.83;;;;;;;-143.48;57.37;118439.88;5034660;28;20474;-74
2023/06/02 09:49:07;;;;;;;12.60;2.88;;;;;;;-143.48;58.53;118439.88;5034940;28;20036;-73
2023/06/02 09:51:35;;;;;;;13.35;3.40;;;;;;;-143.48;57.54;118439.88;5035160;28;20025;-73
2023/06/02 09:54:01;;;;;;;11.50;2.88;;;;;;;-143.48;56.45;118439.88;5034734;28;20461;-73
2023/06/02 09:56:29;;;;;;;12.95;3.00;;;;;;;-143.48;58.62;118439.88;5016595;28;20028;-73
2023/06/02 09:58:55;;;;;;;14.10;3.03;;;;;;;-143.48;57.11;118439.88;5016700;28;20045;-72
2023/06/02 10:01:20;;;;;;;13.88;3.13;;;;;;;-143.48;57.55;118439.88;5033604;28;20073;-73
2023/06/02 10:03:45;;;;;;;17.88;3.10;;;;;;;-143.48;57.32;118439.88;5016504;28;20040;-72
2023/06/02 10:06:19;;;;;;;10.98;2.72;;;;;;;-143.48;58.27;118439.88;5034200;28;20060;-72
2023/06/02 10:09:05;;;;;;;13.43;3.05;;;;;;;-143.48;58.83;118439.88;5034186;28;20097;-73
2023/06/02 10:12:00;;;;;;;18.08;3.17;;;;;;;-143.48;58.55;118439.88;5034004;28;20079;-73
2023/06/02 10:14:28;;;;;;;18.42;2.97;;;;;;;-143.48;57.45;118439.88;5034206;28;20037;-73
2023/06/02 10:17:21;;;;;;;18.95;3.47;;;;;;;-143.48;59.41;118439.88;5034074;28;20022;-73
2023/06/02 10:20:07;;;;;;;17.20;3.15;;;;;;;-143.48;60.28;118439.88;5034110;28;20033;-72
2023/06/02 10:22:51;;;;;;;17.60;3.08;;;;;;;-143.48;58.88;118439.88;5033888;28;20124;-73
2023/06/02 10:26:08;;;;;;;23.42;3.70;;;;;;;-143.48;57.00;118439.88;5015997;28;20037;-72
2023/06/02 10:28:34;;;;;;;14.27;3.28;;;;;;;-143.48;57.43;118439.88;4993592;28;20041;-72
2023/06/02 10:31:07;;;;;;;11.00;3.00;;;;;;;-143.48;61.52;118439.88;5033403;28;20384;-72
2023/06/02 10:33:49;;;;;;;19.02;3.47;;;;;;;-143.48;60.03;118439.88;5033654;28;20025;-73
2023/06/02 10:36:17;;;;;;;14.43;3.50;;;;;;;-143.48;59.61;118439.88;5015652;28;20013;-75
2023/06/02 10:38:46;;;;;;;18.15;3.35;;;;;;;-143.48;57.83;118439.88;5034255;28;20025;-72
2023/06/02 10:41:14;;;;;;;19.10;3.55;;;;;;;-143.48;57.58;118439.88;5033203;28;20017;-72
2023/06/02 10:44:18;;;;;;;18.67;3.50;;;;;;;-143.48;57.78;118439.88;5015354;28;20400;-73
2023/06/02 10:46:43;;;;;;;20.38;3.33;;;;;;;-143.48;59.63;118439.88;5015187;28;20025;-74
2023/06/02 10:49:46;;;;;;;14.30;3.35;;;;;;;-143.48;59.62;118439.88;5015604;28;20365;-73
2023/06/02 10:52:12;;;;;;;18.77;3.97;;;;;;;-143.48;59.03;118439.88;5032506;28;20029;-72
2023/06/02 10:54:37;;;;;;;17.40;3.83;;;;;;;-143.48;61.12;118439.88;5032816;28;20028;-73
2023/06/02 10:57:02;;;;;;;13.30;3.50;;;;;;;-143.48;59.06;118439.88;5015174;28;20034;-74
2023/06/02 10:59:34;;;;;;;21.13;3.53;;;;;;;-143.48;60.44;118439.88;5014766;28;20029;-73
2023/06/02 11:02:00;;;;;;;14.82;3.50;;;;;;;-143.48;60.56;118439.88;5014583;28;20054;-73
2023/06/02 11:04:30;;;;;;;18.25;3.78;;;;;;;-143.48;61.12;118439.88;5032383;28;20446;-73
2023/06/02 11:07:18;;;;;;;16.85;3.63;;;;;;;-143.48;61.04;118439.88;5014605;28;20477;-73
2023/06/02 11:09:45;;;;;;;21.13;3.80;;;;;;;-143.48;60.56;118439.88;5030942;28;20026;-73
2023/06/02 11:12:11;;;;;;;14.82;3.30;;;;;;;-143.48;60.72;118439.88;5014231;28;20029;-72
2023/06/02 11:15:04;;;;;;;20.05;3.63;;;;;;;-143.48;59.41;118439.88;5031502;28;20100;-74
2023/06/02 11:17:31;;;;;;;14.03;3.73;;;;;;;-143.48;58.33;118439.88;5031325;28;20021;-73
2023/06/02 11:19:57;;;;;;;11.70;3.60;;;;;;;-143.48;57.64;118439.88;5032812;28;20064;-73
2023/06/02 11:22:26;;;;;;;14.18;3.60;;;;;;;-143.48;57.93;118439.88;5015143;28;20060;-72
2023/06/02 11:24:52;;;;;;;16.55;3.80;;;;;;;-143.48;58.32;118439.88;5032679;28;20370;-73
2023/06/02 11:27:18;;;;;;;13.63;3.88;;;;;;;-143.48;57.89;118439.88;5014965;28;20025;-72